sensor_id;sensor_type;location;lat;lon;timestamp;P1;durP1;ratioP1;P2;durP2;ratioP2
64210;SDS011;50528;48.514;14.394;2023-07-31T00:00:31;3.90;;;1.90;;
64210;SDS011;50528;48.514;14.394;2023-07-31T00:01:25;3.10;;;1.80;;
64210;SDS011;50528;48.514;14.394;2023-07-31T00:01:58;3.90;;;1.90;;
64210;SDS011;50528;48.514;14.394;2023-07-31T00:02:32;4.20;;;1.90;;
64210;SDS011;50528;48.514;14.394;2023-07-31T00:03:06;3.00;;;1.80;;
64210;SDS011;50528;48.514;14.394;2023-07-31T00:03:39;3.00;;;1.70;;
64210;SDS011;50528;48.514;14.394;2023-07-31T00:04:13;2.90;;;1.70;;
64210;SDS011;50528;48.514;14.394;2023-07-31T00:04:46;3.40;;;1.80;;
64210;SDS011;50528;48.514;14.394;2023-07-31T00:05:19;4.00;;;1.80;;
64210;SDS011;50528;48.514;14.394;2023-07-31T00:05:53;3.20;;;1.70;;
64210;SDS011;50528;48.514;14.394;2023-07-31T00:06:26;3.20;;;1.60;;
64210;SDS011;50528;48.514;14.394;2023-07-31T00:07:00;4.10;;;1.90;;
64210;SDS011;50528;48.514;14.394;2023-07-31T00:07:37;4.10;;;1.90;;
64210;SDS011;50528;48.514;14.394;2023-07-31T00:08:10;3.30;;;1.70;;
64210;SDS011;50528;48.514;14.394;2023-07-31T00:08:44;6.00;;;1.90;;
64210;SDS011;50528;48.514;14.394;2023-07-31T00:09:17;6.70;;;1.90;;
64210;SDS011;50528;48.514;14.394;2023-07-31T00:09:50;3.40;;;2.00;;
64210;SDS011;50528;48.514;14.394;2023-07-31T00:10:24;6.00;;;2.10;;
64210;SDS011;50528;48.514;14.394;2023-07-31T00:10:58;4.50;;;1.80;;
64210;SDS011;50528;48.514;14.394;2023-07-31T00:11:31;3.30;;;1.80;;
64210;SDS011;50528;48.514;14.394;2023-07-31T00:12:05;3.10;;;1.70;;
64210;SDS011;50528;48.514;14.394;2023-07-31T00:12:41;3.80;;;1.90;;
64210;SDS011;50528;48.514;14.394;2023-07-31T00:13:15;3.20;;;1.80;;
64210;SDS011;50528;48.514;14.394;2023-07-31T00:13:49;4.70;;;1.90;;
64210;SDS011;50528;48.514;14.394;2023-07-31T00:14:22;3.10;;;2.00;;
64210;SDS011;50528;48.514;14.394;2023-07-31T00:14:57;5.10;;;1.80;;
64210;SDS011;50528;48.514;14.394;2023-07-31T00:15:30;5.60;;;1.90;;
64210;SDS011;50528;48.514;14.394;2023-07-31T00:16:07;4.00;;;1.90;;
64210;SDS011;50528;48.514;14.394;2023-07-31T00:16:44;3.00;;;1.60;;
64210;SDS011;50528;48.514;14.394;2023-07-31T00:17:23;4.60;;;2.10;;
64210;SDS011;50528;48.514;14.394;2023-07-31T00:17:56;3.90;;;1.90;;
64210;SDS011;50528;48.514;14.394;2023-07-31T00:18:30;3.60;;;1.80;;
64210;SDS011;50528;48.514;14.394;2023-07-31T00:19:03;3.10;;;1.90;;
64210;SDS011;50528;48.514;14.394;2023-07-31T00:19:36;3.10;;;2.00;;
64210;SDS011;50528;48.514;14.394;2023-07-31T00:20:10;3.00;;;1.70;;
64210;SDS011;50528;48.514;14.394;2023-07-31T00:20:44;3.80;;;1.80;;
64210;SDS011;50528;48.514;14.394;2023-07-31T00:21:17;4.60;;;1.90;;
64210;SDS011;50528;48.514;14.394;2023-07-31T00:21:50;3.00;;;1.80;;
64210;SDS011;50528;48.514;14.394;2023-07-31T00:22:24;3.60;;;2.00;;
64210;SDS011;50528;48.514;14.394;2023-07-31T00:22:57;3.20;;;1.50;;
64210;SDS011;50528;48.514;14.394;2023-07-31T00:23:30;3.60;;;2.10;;
64210;SDS011;50528;48.514;14.394;2023-07-31T00:24:04;4.20;;;1.80;;
64210;SDS011;50528;48.514;14.394;2023-07-31T00:24:37;3.30;;;1.70;;
64210;SDS011;50528;48.514;14.394;2023-07-31T00:25:11;3.50;;;1.90;;
64210;SDS011;50528;48.514;14.394;2023-07-31T00:25:44;6.10;;;2.00;;
64210;SDS011;50528;48.514;14.394;2023-07-31T00:26:17;4.00;;;2.00;;
64210;SDS011;50528;48.514;14.394;2023-07-31T00:26:51;3.40;;;1.90;;
64210;SDS011;50528;48.514;14.394;2023-07-31T00:27:24;3.20;;;2.00;;
64210;SDS011;50528;48.514;14.394;2023-07-31T00:27:57;3.20;;;1.70;;
64210;SDS011;50528;48.514;14.394;2023-07-31T00:28:31;5.40;;;1.90;;
64210;SDS011;50528;48.514;14.394;2023-07-31T00:29:05;3.40;;;1.70;;
64210;SDS011;50528;48.514;14.394;2023-07-31T00:29:39;3.10;;;1.90;;
64210;SDS011;50528;48.514;14.394;2023-07-31T00:30:12;3.80;;;2.00;;
64210;SDS011;50528;48.514;14.394;2023-07-31T00:30:45;3.70;;;2.00;;
64210;SDS011;50528;48.514;14.394;2023-07-31T00:31:19;3.50;;;2.00;;
64210;SDS011;50528;48.514;14.394;2023-07-31T00:31:53;4.60;;;2.10;;
64210;SDS011;50528;48.514;14.394;2023-07-31T00:32:26;4.60;;;1.90;;
64210;SDS011;50528;48.514;14.394;2023-07-31T00:33:00;3.30;;;2.00;;
64210;SDS011;50528;48.514;14.394;2023-07-31T00:33:34;2.70;;;1.70;;
64210;SDS011;50528;48.514;14.394;2023-07-31T00:34:08;4.10;;;1.80;;
64210;SDS011;50528;48.514;14.394;2023-07-31T00:34:42;3.30;;;2.10;;
64210;SDS011;50528;48.514;14.394;2023-07-31T00:35:15;3.70;;;2.00;;
64210;SDS011;50528;48.514;14.394;2023-07-31T00:35:48;5.50;;;1.90;;
64210;SDS011;50528;48.514;14.394;2023-07-31T00:36:22;4.80;;;2.00;;
64210;SDS011;50528;48.514;14.394;2023-07-31T00:36:56;3.60;;;1.90;;
64210;SDS011;50528;48.514;14.394;2023-07-31T00:37:29;3.80;;;2.20;;
64210;SDS011;50528;48.514;14.394;2023-07-31T00:38:02;2.90;;;1.90;;
64210;SDS011;50528;48.514;14.394;2023-07-31T00:38:36;4.30;;;2.00;;
64210;SDS011;50528;48.514;14.394;2023-07-31T00:39:09;3.70;;;1.90;;
64210;SDS011;50528;48.514;14.394;2023-07-31T00:39:43;4.10;;;1.90;;
64210;SDS011;50528;48.514;14.394;2023-07-31T00:40:16;2.90;;;1.90;;
64210;SDS011;50528;48.514;14.394;2023-07-31T00:40:49;3.20;;;2.00;;
64210;SDS011;50528;48.514;14.394;2023-07-31T00:41:22;3.70;;;2.00;;
64210;SDS011;50528;48.514;14.394;2023-07-31T00:41:56;3.10;;;1.80;;
64210;SDS011;50528;48.514;14.394;2023-07-31T00:42:29;4.10;;;2.00;;
64210;SDS011;50528;48.514;14.394;2023-07-31T00:43:03;4.20;;;1.90;;
64210;SDS011;50528;48.514;14.394;2023-07-31T00:43:37;3.50;;;2.00;;
64210;SDS011;50528;48.514;14.394;2023-07-31T00:44:10;4.10;;;2.20;;
64210;SDS011;50528;48.514;14.394;2023-07-31T00:44:44;5.80;;;2.00;;
64210;SDS011;50528;48.514;14.394;2023-07-31T00:45:17;4.30;;;2.10;;
64210;SDS011;50528;48.514;14.394;2023-07-31T00:45:52;5.50;;;1.90;;
64210;SDS011;50528;48.514;14.394;2023-07-31T00:46:25;3.90;;;1.90;;
64210;SDS011;50528;48.514;14.394;2023-07-31T00:46:59;4.10;;;1.90;;
64210;SDS011;50528;48.514;14.394;2023-07-31T00:47:32;4.80;;;1.80;;
64210;SDS011;50528;48.514;14.394;2023-07-31T00:48:06;3.50;;;1.80;;
64210;SDS011;50528;48.514;14.394;2023-07-31T00:48:40;4.50;;;2.10;;
64210;SDS011;50528;48.514;14.394;2023-07-31T00:49:14;4.20;;;2.00;;
64210;SDS011;50528;48.514;14.394;2023-07-31T00:49:48;3.90;;;1.90;;
64210;SDS011;50528;48.514;14.394;2023-07-31T00:50:23;3.40;;;1.90;;
64210;SDS011;50528;48.514;14.394;2023-07-31T00:50:58;5.90;;;1.80;;
64210;SDS011;50528;48.514;14.394;2023-07-31T00:51:31;4.50;;;2.00;;
64210;SDS011;50528;48.514;14.394;2023-07-31T00:52:05;5.10;;;2.20;;
64210;SDS011;50528;48.514;14.394;2023-07-31T00:52:39;4.40;;;2.00;;
64210;SDS011;50528;48.514;14.394;2023-07-31T00:53:12;5.90;;;1.90;;
64210;SDS011;50528;48.514;14.394;2023-07-31T00:53:46;3.40;;;1.90;;
64210;SDS011;50528;48.514;14.394;2023-07-31T00:54:20;3.20;;;1.70;;
64210;SDS011;50528;48.514;14.394;2023-07-31T00:54:53;3.20;;;2.00;;
64210;SDS011;50528;48.514;14.394;2023-07-31T00:55:27;3.30;;;1.90;;
64210;SDS011;50528;48.514;14.394;2023-07-31T00:56:00;4.10;;;2.10;;
64210;SDS011;50528;48.514;14.394;2023-07-31T00:56:34;5.50;;;2.00;;
64210;SDS011;50528;48.514;14.394;2023-07-31T00:57:08;3.30;;;2.00;;
64210;SDS011;50528;48.514;14.394;2023-07-31T00:57:41;4.20;;;1.90;;
64210;SDS011;50528;48.514;14.394;2023-07-31T00:58:16;4.00;;;1.90;;
64210;SDS011;50528;48.514;14.394;2023-07-31T00:58:50;4.60;;;1.80;;
64210;SDS011;50528;48.514;14.394;2023-07-31T00:59:23;4.10;;;2.20;;
64210;SDS011;50528;48.514;14.394;2023-07-31T00:59:57;4.30;;;1.80;;
64210;SDS011;50528;48.514;14.394;2023-07-31T01:00:30;4.40;;;1.90;;
64210;SDS011;50528;48.514;14.394;2023-07-31T01:01:04;3.60;;;1.90;;
64210;SDS011;50528;48.514;14.394;2023-07-31T01:01:37;4.10;;;2.00;;
64210;SDS011;50528;48.514;14.394;2023-07-31T01:02:11;5.80;;;2.10;;
64210;SDS011;50528;48.514;14.394;2023-07-31T01:02:44;4.80;;;2.30;;
64210;SDS011;50528;48.514;14.394;2023-07-31T01:03:19;4.60;;;2.20;;
64210;SDS011;50528;48.514;14.394;2023-07-31T01:03:53;5.40;;;2.10;;
64210;SDS011;50528;48.514;14.394;2023-07-31T01:04:26;3.50;;;2.00;;
64210;SDS011;50528;48.514;14.394;2023-07-31T01:05:01;4.30;;;1.90;;
64210;SDS011;50528;48.514;14.394;2023-07-31T01:06:30;4.70;;;2.10;;
64210;SDS011;50528;48.514;14.394;2023-07-31T01:09:30;4.70;;;2.00;;
64210;SDS011;50528;48.514;14.394;2023-07-31T01:10:16;7.30;;;2.10;;
64210;SDS011;50528;48.514;14.394;2023-07-31T01:10:56;3.40;;;1.90;;
64210;SDS011;50528;48.514;14.394;2023-07-31T01:11:34;4.40;;;2.20;;
64210;SDS011;50528;48.514;14.394;2023-07-31T01:12:16;4.00;;;1.90;;
64210;SDS011;50528;48.514;14.394;2023-07-31T01:12:51;4.40;;;2.00;;
64210;SDS011;50528;48.514;14.394;2023-07-31T01:13:24;3.00;;;2.10;;
64210;SDS011;50528;48.514;14.394;2023-07-31T01:13:58;3.70;;;1.90;;
64210;SDS011;50528;48.514;14.394;2023-07-31T01:14:32;3.90;;;2.00;;
64210;SDS011;50528;48.514;14.394;2023-07-31T01:15:06;4.30;;;2.10;;
64210;SDS011;50528;48.514;14.394;2023-07-31T01:15:44;3.80;;;1.90;;
64210;SDS011;50528;48.514;14.394;2023-07-31T01:16:17;4.90;;;2.10;;
64210;SDS011;50528;48.514;14.394;2023-07-31T01:16:51;4.50;;;2.20;;
64210;SDS011;50528;48.514;14.394;2023-07-31T01:17:24;4.40;;;2.20;;
64210;SDS011;50528;48.514;14.394;2023-07-31T01:17:57;3.60;;;2.00;;
64210;SDS011;50528;48.514;14.394;2023-07-31T01:18:31;3.10;;;1.80;;
64210;SDS011;50528;48.514;14.394;2023-07-31T01:19:05;5.00;;;2.10;;
64210;SDS011;50528;48.514;14.394;2023-07-31T01:19:41;4.10;;;2.00;;
64210;SDS011;50528;48.514;14.394;2023-07-31T01:20:21;3.50;;;2.00;;
64210;SDS011;50528;48.514;14.394;2023-07-31T01:24:59;4.60;;;1.90;;
64210;SDS011;50528;48.514;14.394;2023-07-31T01:26:27;8.50;;;2.30;;
64210;SDS011;50528;48.514;14.394;2023-07-31T01:27:12;3.90;;;2.00;;
64210;SDS011;50528;48.514;14.394;2023-07-31T01:27:53;3.40;;;2.00;;
64210;SDS011;50528;48.514;14.394;2023-07-31T01:29:01;3.70;;;2.10;;
64210;SDS011;50528;48.514;14.394;2023-07-31T01:30:16;4.40;;;2.10;;
64210;SDS011;50528;48.514;14.394;2023-07-31T01:30:55;3.50;;;2.10;;
64210;SDS011;50528;48.514;14.394;2023-07-31T01:31:33;6.00;;;2.20;;
64210;SDS011;50528;48.514;14.394;2023-07-31T01:32:08;4.30;;;2.20;;
64210;SDS011;50528;48.514;14.394;2023-07-31T01:32:43;3.70;;;2.40;;
64210;SDS011;50528;48.514;14.394;2023-07-31T01:33:21;4.60;;;2.10;;
64210;SDS011;50528;48.514;14.394;2023-07-31T01:33:55;7.50;;;1.90;;
64210;SDS011;50528;48.514;14.394;2023-07-31T01:34:32;4.10;;;1.90;;
64210;SDS011;50528;48.514;14.394;2023-07-31T01:35:07;4.10;;;2.10;;
64210;SDS011;50528;48.514;14.394;2023-07-31T01:35:43;4.20;;;2.00;;
64210;SDS011;50528;48.514;14.394;2023-07-31T01:36:18;4.70;;;2.10;;
64210;SDS011;50528;48.514;14.394;2023-07-31T01:36:52;4.00;;;2.10;;
64210;SDS011;50528;48.514;14.394;2023-07-31T01:37:28;6.50;;;2.10;;
64210;SDS011;50528;48.514;14.394;2023-07-31T01:38:05;4.70;;;2.20;;
64210;SDS011;50528;48.514;14.394;2023-07-31T01:38:39;4.90;;;2.20;;
64210;SDS011;50528;48.514;14.394;2023-07-31T01:39:12;3.90;;;2.10;;
64210;SDS011;50528;48.514;14.394;2023-07-31T01:39:46;5.10;;;2.20;;
64210;SDS011;50528;48.514;14.394;2023-07-31T01:40:19;3.70;;;2.40;;
64210;SDS011;50528;48.514;14.394;2023-07-31T01:40:53;5.50;;;2.10;;
64210;SDS011;50528;48.514;14.394;2023-07-31T01:41:26;4.20;;;2.30;;
64210;SDS011;50528;48.514;14.394;2023-07-31T01:42:00;4.40;;;2.10;;
64210;SDS011;50528;48.514;14.394;2023-07-31T01:42:34;5.60;;;2.10;;
64210;SDS011;50528;48.514;14.394;2023-07-31T01:43:07;5.10;;;2.20;;
64210;SDS011;50528;48.514;14.394;2023-07-31T01:43:40;3.40;;;2.10;;
64210;SDS011;50528;48.514;14.394;2023-07-31T01:44:14;4.90;;;2.30;;
64210;SDS011;50528;48.514;14.394;2023-07-31T01:44:47;4.20;;;2.10;;
64210;SDS011;50528;48.514;14.394;2023-07-31T01:45:20;4.80;;;2.20;;
64210;SDS011;50528;48.514;14.394;2023-07-31T01:45:53;5.20;;;2.10;;
64210;SDS011;50528;48.514;14.394;2023-07-31T01:46:27;3.20;;;2.20;;
64210;SDS011;50528;48.514;14.394;2023-07-31T01:47:01;3.90;;;2.10;;
64210;SDS011;50528;48.514;14.394;2023-07-31T01:47:35;5.30;;;2.30;;
64210;SDS011;50528;48.514;14.394;2023-07-31T01:48:08;4.10;;;2.00;;
64210;SDS011;50528;48.514;14.394;2023-07-31T01:48:41;5.40;;;2.10;;
64210;SDS011;50528;48.514;14.394;2023-07-31T01:51:16;4.30;;;2.20;;
64210;SDS011;50528;48.514;14.394;2023-07-31T01:51:49;4.50;;;2.40;;
64210;SDS011;50528;48.514;14.394;2023-07-31T01:52:22;4.40;;;2.20;;
64210;SDS011;50528;48.514;14.394;2023-07-31T01:52:56;6.80;;;2.20;;
64210;SDS011;50528;48.514;14.394;2023-07-31T01:53:30;4.40;;;2.30;;
64210;SDS011;50528;48.514;14.394;2023-07-31T01:54:04;5.80;;;2.20;;
64210;SDS011;50528;48.514;14.394;2023-07-31T01:54:38;3.80;;;2.20;;
64210;SDS011;50528;48.514;14.394;2023-07-31T01:55:11;4.20;;;2.10;;
64210;SDS011;50528;48.514;14.394;2023-07-31T01:55:44;3.60;;;2.20;;
64210;SDS011;50528;48.514;14.394;2023-07-31T01:56:18;4.00;;;2.30;;
64210;SDS011;50528;48.514;14.394;2023-07-31T01:56:51;7.10;;;2.50;;
64210;SDS011;50528;48.514;14.394;2023-07-31T01:57:24;4.30;;;2.40;;
64210;SDS011;50528;48.514;14.394;2023-07-31T01:57:58;5.20;;;2.40;;
64210;SDS011;50528;48.514;14.394;2023-07-31T01:58:31;3.30;;;2.20;;
64210;SDS011;50528;48.514;14.394;2023-07-31T01:59:04;3.30;;;2.00;;
64210;SDS011;50528;48.514;14.394;2023-07-31T01:59:38;4.60;;;2.20;;
64210;SDS011;50528;48.514;14.394;2023-07-31T02:00:12;4.60;;;2.20;;
64210;SDS011;50528;48.514;14.394;2023-07-31T02:00:45;4.80;;;2.20;;
64210;SDS011;50528;48.514;14.394;2023-07-31T02:01:19;5.50;;;2.30;;
64210;SDS011;50528;48.514;14.394;2023-07-31T02:01:52;3.50;;;2.10;;
64210;SDS011;50528;48.514;14.394;2023-07-31T02:02:26;4.00;;;2.50;;
64210;SDS011;50528;48.514;14.394;2023-07-31T02:03:00;5.80;;;2.40;;
64210;SDS011;50528;48.514;14.394;2023-07-31T02:03:33;6.80;;;2.20;;
64210;SDS011;50528;48.514;14.394;2023-07-31T02:04:07;4.60;;;2.50;;
64210;SDS011;50528;48.514;14.394;2023-07-31T02:04:40;4.40;;;2.30;;
64210;SDS011;50528;48.514;14.394;2023-07-31T02:05:14;3.90;;;2.50;;
64210;SDS011;50528;48.514;14.394;2023-07-31T02:05:48;3.80;;;2.20;;
64210;SDS011;50528;48.514;14.394;2023-07-31T02:06:22;3.70;;;2.30;;
64210;SDS011;50528;48.514;14.394;2023-07-31T02:06:55;5.40;;;2.20;;
64210;SDS011;50528;48.514;14.394;2023-07-31T02:07:29;5.40;;;2.20;;
64210;SDS011;50528;48.514;14.394;2023-07-31T02:08:02;4.40;;;2.40;;
64210;SDS011;50528;48.514;14.394;2023-07-31T02:08:38;4.50;;;2.30;;
64210;SDS011;50528;48.514;14.394;2023-07-31T02:09:11;4.20;;;2.20;;
64210;SDS011;50528;48.514;14.394;2023-07-31T02:09:45;4.30;;;2.20;;
64210;SDS011;50528;48.514;14.394;2023-07-31T02:10:19;4.50;;;2.30;;
64210;SDS011;50528;48.514;14.394;2023-07-31T02:10:53;4.90;;;2.30;;
64210;SDS011;50528;48.514;14.394;2023-07-31T02:11:26;5.10;;;2.50;;
64210;SDS011;50528;48.514;14.394;2023-07-31T02:12:00;5.60;;;2.30;;
64210;SDS011;50528;48.514;14.394;2023-07-31T02:12:33;3.70;;;2.40;;
64210;SDS011;50528;48.514;14.394;2023-07-31T02:13:07;5.30;;;2.40;;
64210;SDS011;50528;48.514;14.394;2023-07-31T02:13:40;3.30;;;2.20;;
64210;SDS011;50528;48.514;14.394;2023-07-31T02:14:14;5.50;;;2.50;;
64210;SDS011;50528;48.514;14.394;2023-07-31T02:14:47;4.40;;;2.40;;
64210;SDS011;50528;48.514;14.394;2023-07-31T02:15:20;3.80;;;2.30;;
64210;SDS011;50528;48.514;14.394;2023-07-31T02:15:54;4.50;;;2.30;;
64210;SDS011;50528;48.514;14.394;2023-07-31T02:16:27;4.00;;;2.50;;
64210;SDS011;50528;48.514;14.394;2023-07-31T02:17:01;4.90;;;2.30;;
64210;SDS011;50528;48.514;14.394;2023-07-31T02:17:34;5.60;;;2.50;;
64210;SDS011;50528;48.514;14.394;2023-07-31T02:18:09;5.30;;;2.40;;
64210;SDS011;50528;48.514;14.394;2023-07-31T02:18:42;5.00;;;2.20;;
64210;SDS011;50528;48.514;14.394;2023-07-31T02:19:16;4.60;;;2.30;;
64210;SDS011;50528;48.514;14.394;2023-07-31T02:19:49;4.90;;;2.50;;
64210;SDS011;50528;48.514;14.394;2023-07-31T02:20:22;4.70;;;2.20;;
64210;SDS011;50528;48.514;14.394;2023-07-31T02:20:56;3.70;;;2.40;;
64210;SDS011;50528;48.514;14.394;2023-07-31T02:21:31;4.30;;;2.40;;
64210;SDS011;50528;48.514;14.394;2023-07-31T02:22:04;5.30;;;2.40;;
64210;SDS011;50528;48.514;14.394;2023-07-31T02:22:38;4.80;;;2.40;;
64210;SDS011;50528;48.514;14.394;2023-07-31T02:23:11;4.10;;;2.30;;
64210;SDS011;50528;48.514;14.394;2023-07-31T02:23:44;5.60;;;2.30;;
64210;SDS011;50528;48.514;14.394;2023-07-31T02:24:17;5.10;;;2.60;;
64210;SDS011;50528;48.514;14.394;2023-07-31T02:24:51;3.90;;;2.30;;
64210;SDS011;50528;48.514;14.394;2023-07-31T02:25:26;3.30;;;2.40;;
64210;SDS011;50528;48.514;14.394;2023-07-31T02:25:59;3.70;;;2.30;;
64210;SDS011;50528;48.514;14.394;2023-07-31T02:26:33;4.10;;;2.30;;
64210;SDS011;50528;48.514;14.394;2023-07-31T02:27:06;4.30;;;2.10;;
64210;SDS011;50528;48.514;14.394;2023-07-31T02:27:40;4.70;;;2.10;;
64210;SDS011;50528;48.514;14.394;2023-07-31T02:28:13;4.60;;;2.50;;
64210;SDS011;50528;48.514;14.394;2023-07-31T02:28:46;5.00;;;2.30;;
64210;SDS011;50528;48.514;14.394;2023-07-31T02:29:20;4.10;;;2.10;;
64210;SDS011;50528;48.514;14.394;2023-07-31T02:29:53;3.80;;;2.30;;
64210;SDS011;50528;48.514;14.394;2023-07-31T02:30:27;4.90;;;2.50;;
64210;SDS011;50528;48.514;14.394;2023-07-31T02:31:01;6.30;;;2.60;;
64210;SDS011;50528;48.514;14.394;2023-07-31T02:31:34;3.60;;;2.30;;
64210;SDS011;50528;48.514;14.394;2023-07-31T02:32:07;5.50;;;2.40;;
64210;SDS011;50528;48.514;14.394;2023-07-31T02:32:41;3.40;;;2.20;;
64210;SDS011;50528;48.514;14.394;2023-07-31T02:33:15;4.20;;;2.20;;
64210;SDS011;50528;48.514;14.394;2023-07-31T02:33:51;4.80;;;2.50;;
64210;SDS011;50528;48.514;14.394;2023-07-31T02:34:26;7.20;;;2.80;;
64210;SDS011;50528;48.514;14.394;2023-07-31T02:35:00;6.00;;;2.40;;
64210;SDS011;50528;48.514;14.394;2023-07-31T02:35:34;6.10;;;2.50;;
64210;SDS011;50528;48.514;14.394;2023-07-31T02:36:07;6.20;;;2.50;;
64210;SDS011;50528;48.514;14.394;2023-07-31T02:36:41;4.80;;;2.40;;
64210;SDS011;50528;48.514;14.394;2023-07-31T02:37:15;4.50;;;2.50;;
64210;SDS011;50528;48.514;14.394;2023-07-31T02:37:49;4.20;;;2.30;;
64210;SDS011;50528;48.514;14.394;2023-07-31T02:38:23;5.40;;;2.70;;
64210;SDS011;50528;48.514;14.394;2023-07-31T02:38:57;5.20;;;2.50;;
64210;SDS011;50528;48.514;14.394;2023-07-31T02:39:31;4.50;;;2.20;;
64210;SDS011;50528;48.514;14.394;2023-07-31T02:40:04;4.50;;;2.60;;
64210;SDS011;50528;48.514;14.394;2023-07-31T02:40:39;4.90;;;2.30;;
64210;SDS011;50528;48.514;14.394;2023-07-31T02:41:16;4.60;;;2.60;;
64210;SDS011;50528;48.514;14.394;2023-07-31T02:41:50;5.80;;;2.30;;
64210;SDS011;50528;48.514;14.394;2023-07-31T02:42:24;5.40;;;2.40;;
64210;SDS011;50528;48.514;14.394;2023-07-31T02:42:57;5.70;;;2.40;;
64210;SDS011;50528;48.514;14.394;2023-07-31T02:43:31;4.90;;;2.40;;
64210;SDS011;50528;48.514;14.394;2023-07-31T02:44:05;4.80;;;2.20;;
64210;SDS011;50528;48.514;14.394;2023-07-31T02:44:39;4.20;;;2.50;;
64210;SDS011;50528;48.514;14.394;2023-07-31T02:45:12;7.40;;;2.60;;
64210;SDS011;50528;48.514;14.394;2023-07-31T02:45:50;4.00;;;2.20;;
64210;SDS011;50528;48.514;14.394;2023-07-31T02:46:26;5.70;;;2.70;;
64210;SDS011;50528;48.514;14.394;2023-07-31T02:47:00;4.40;;;2.60;;
64210;SDS011;50528;48.514;14.394;2023-07-31T02:47:34;4.10;;;2.70;;
64210;SDS011;50528;48.514;14.394;2023-07-31T02:48:08;4.90;;;2.30;;
64210;SDS011;50528;48.514;14.394;2023-07-31T02:48:41;4.10;;;2.40;;
64210;SDS011;50528;48.514;14.394;2023-07-31T02:49:15;5.10;;;2.70;;
64210;SDS011;50528;48.514;14.394;2023-07-31T02:49:48;4.20;;;2.70;;
64210;SDS011;50528;48.514;14.394;2023-07-31T02:50:23;4.00;;;2.40;;
64210;SDS011;50528;48.514;14.394;2023-07-31T02:50:57;5.40;;;2.70;;
64210;SDS011;50528;48.514;14.394;2023-07-31T02:51:32;4.30;;;2.40;;
64210;SDS011;50528;48.514;14.394;2023-07-31T02:52:05;4.50;;;2.60;;
64210;SDS011;50528;48.514;14.394;2023-07-31T02:52:39;4.40;;;2.60;;
64210;SDS011;50528;48.514;14.394;2023-07-31T02:53:15;6.80;;;2.70;;
64210;SDS011;50528;48.514;14.394;2023-07-31T02:53:51;4.90;;;2.70;;
64210;SDS011;50528;48.514;14.394;2023-07-31T02:54:28;4.90;;;2.60;;
64210;SDS011;50528;48.514;14.394;2023-07-31T02:55:05;5.80;;;2.60;;
64210;SDS011;50528;48.514;14.394;2023-07-31T02:55:42;4.20;;;2.50;;
64210;SDS011;50528;48.514;14.394;2023-07-31T02:56:17;3.70;;;2.50;;
64210;SDS011;50528;48.514;14.394;2023-07-31T02:56:51;6.50;;;2.70;;
64210;SDS011;50528;48.514;14.394;2023-07-31T02:57:24;4.50;;;2.70;;
64210;SDS011;50528;48.514;14.394;2023-07-31T02:57:57;5.20;;;2.60;;
64210;SDS011;50528;48.514;14.394;2023-07-31T02:58:35;5.80;;;3.10;;
64210;SDS011;50528;48.514;14.394;2023-07-31T02:59:10;4.20;;;2.70;;
64210;SDS011;50528;48.514;14.394;2023-07-31T02:59:44;5.60;;;2.70;;
64210;SDS011;50528;48.514;14.394;2023-07-31T03:00:17;4.40;;;2.60;;
64210;SDS011;50528;48.514;14.394;2023-07-31T03:00:51;5.90;;;2.70;;
64210;SDS011;50528;48.514;14.394;2023-07-31T03:01:24;4.40;;;2.70;;
64210;SDS011;50528;48.514;14.394;2023-07-31T03:01:58;3.80;;;2.40;;
64210;SDS011;50528;48.514;14.394;2023-07-31T03:02:32;4.30;;;2.70;;
64210;SDS011;50528;48.514;14.394;2023-07-31T03:03:05;4.80;;;2.40;;
64210;SDS011;50528;48.514;14.394;2023-07-31T03:03:40;4.60;;;2.50;;
64210;SDS011;50528;48.514;14.394;2023-07-31T03:04:17;4.10;;;2.50;;
64210;SDS011;50528;48.514;14.394;2023-07-31T03:04:50;4.40;;;2.40;;
64210;SDS011;50528;48.514;14.394;2023-07-31T03:05:24;5.30;;;2.60;;
64210;SDS011;50528;48.514;14.394;2023-07-31T03:05:57;3.70;;;2.40;;
64210;SDS011;50528;48.514;14.394;2023-07-31T03:06:31;4.70;;;2.80;;
64210;SDS011;50528;48.514;14.394;2023-07-31T03:07:05;5.00;;;2.90;;
64210;SDS011;50528;48.514;14.394;2023-07-31T03:07:38;3.90;;;2.60;;
64210;SDS011;50528;48.514;14.394;2023-07-31T03:08:12;4.50;;;2.70;;
64210;SDS011;50528;48.514;14.394;2023-07-31T03:08:45;5.90;;;2.70;;
64210;SDS011;50528;48.514;14.394;2023-07-31T03:09:20;6.30;;;2.80;;
64210;SDS011;50528;48.514;14.394;2023-07-31T03:09:53;4.50;;;2.60;;
64210;SDS011;50528;48.514;14.394;2023-07-31T03:10:26;6.00;;;2.60;;
64210;SDS011;50528;48.514;14.394;2023-07-31T03:11:00;4.40;;;2.40;;
64210;SDS011;50528;48.514;14.394;2023-07-31T03:11:33;4.50;;;2.60;;
64210;SDS011;50528;48.514;14.394;2023-07-31T03:12:07;4.40;;;2.50;;
64210;SDS011;50528;48.514;14.394;2023-07-31T03:12:41;4.40;;;2.50;;
64210;SDS011;50528;48.514;14.394;2023-07-31T03:13:15;3.80;;;2.70;;
64210;SDS011;50528;48.514;14.394;2023-07-31T03:13:48;3.80;;;2.60;;
64210;SDS011;50528;48.514;14.394;2023-07-31T03:14:21;6.80;;;2.60;;
64210;SDS011;50528;48.514;14.394;2023-07-31T03:14:55;4.90;;;2.60;;
64210;SDS011;50528;48.514;14.394;2023-07-31T03:15:28;5.40;;;2.60;;
64210;SDS011;50528;48.514;14.394;2023-07-31T03:16:01;4.60;;;2.70;;
64210;SDS011;50528;48.514;14.394;2023-07-31T03:16:35;5.60;;;2.50;;
64210;SDS011;50528;48.514;14.394;2023-07-31T03:17:09;4.80;;;2.70;;
64210;SDS011;50528;48.514;14.394;2023-07-31T03:17:42;4.40;;;2.60;;
64210;SDS011;50528;48.514;14.394;2023-07-31T03:18:15;6.30;;;2.50;;
64210;SDS011;50528;48.514;14.394;2023-07-31T03:18:49;5.10;;;2.50;;
64210;SDS011;50528;48.514;14.394;2023-07-31T03:19:22;4.10;;;2.60;;
64210;SDS011;50528;48.514;14.394;2023-07-31T03:19:55;4.30;;;2.60;;
64210;SDS011;50528;48.514;14.394;2023-07-31T03:20:28;3.90;;;2.40;;
64210;SDS011;50528;48.514;14.394;2023-07-31T03:21:02;3.90;;;2.70;;
64210;SDS011;50528;48.514;14.394;2023-07-31T03:21:35;3.80;;;2.50;;
64210;SDS011;50528;48.514;14.394;2023-07-31T03:22:09;7.00;;;2.60;;
64210;SDS011;50528;48.514;14.394;2023-07-31T03:22:42;4.70;;;2.70;;
64210;SDS011;50528;48.514;14.394;2023-07-31T03:23:16;6.20;;;2.70;;
64210;SDS011;50528;48.514;14.394;2023-07-31T03:23:49;5.30;;;2.80;;
64210;SDS011;50528;48.514;14.394;2023-07-31T03:24:23;5.00;;;2.50;;
64210;SDS011;50528;48.514;14.394;2023-07-31T03:24:56;5.40;;;2.80;;
64210;SDS011;50528;48.514;14.394;2023-07-31T03:25:29;6.40;;;2.40;;
64210;SDS011;50528;48.514;14.394;2023-07-31T03:26:07;4.20;;;2.50;;
64210;SDS011;50528;48.514;14.394;2023-07-31T03:26:40;6.50;;;2.70;;
64210;SDS011;50528;48.514;14.394;2023-07-31T03:27:16;4.90;;;2.70;;
64210;SDS011;50528;48.514;14.394;2023-07-31T03:27:49;5.00;;;2.50;;
64210;SDS011;50528;48.514;14.394;2023-07-31T03:28:23;4.60;;;2.50;;
64210;SDS011;50528;48.514;14.394;2023-07-31T03:28:56;6.90;;;2.80;;
64210;SDS011;50528;48.514;14.394;2023-07-31T03:29:30;4.90;;;2.60;;
64210;SDS011;50528;48.514;14.394;2023-07-31T03:30:03;5.60;;;2.60;;
64210;SDS011;50528;48.514;14.394;2023-07-31T03:30:37;5.00;;;2.50;;
64210;SDS011;50528;48.514;14.394;2023-07-31T03:31:11;4.20;;;2.40;;
64210;SDS011;50528;48.514;14.394;2023-07-31T03:31:44;3.80;;;2.60;;
64210;SDS011;50528;48.514;14.394;2023-07-31T03:32:17;3.90;;;2.30;;
64210;SDS011;50528;48.514;14.394;2023-07-31T03:32:51;3.90;;;2.40;;
64210;SDS011;50528;48.514;14.394;2023-07-31T03:33:24;3.60;;;2.60;;
64210;SDS011;50528;48.514;14.394;2023-07-31T03:33:57;5.00;;;2.70;;